Time;durP1;ratioP1;P1;durP2;ratioP2;P2;SDS_P1;SDS_P2;PMS_P1;PMS_P2;Temp;Humidity;BMP_temperature;BMP_pressure;BME280_temperature;BME280_humidity;BME280_pressure;Samples;Min_cycle;Max_cycle;Signal;HPM_P1;HPM_P2
2023/07/07 00:00:12;;;;;;;19.60;9.90;;;16.50;1.00;;;;;;5079058;28;20456;-89
2023/07/07 00:02:41;;;;;;;17.50;9.90;;;16.40;1.00;;;;;;5080407;28;20549;-89
2023/07/07 00:05:08;;;;;;;12.17;9.20;;;16.40;1.00;;;;;;5079712;28;20542;-89
2023/07/07 00:07:35;;;;;;;11.60;8.90;;;16.40;1.00;;;;;;5078631;28;20450;-88
2023/07/07 00:10:02;;;;;;;16.90;10.40;;;16.40;1.00;;;;;;5078621;28;20456;-89
2023/07/07 00:12:30;;;;;;;15.73;9.90;;;16.40;1.00;;;;;;5079140;28;20507;-89
2023/07/07 00:14:56;;;;;;;12.37;9.13;;;16.40;1.00;;;;;;5082350;28;20473;-88
2023/07/07 00:17:24;;;;;;;11.97;9.60;;;16.40;1.00;;;;;;5081255;28;20573;-88
2023/07/07 00:19:53;;;;;;;18.13;9.70;;;16.30;1.00;;;;;;5079318;28;20481;-89
2023/07/07 00:22:19;;;;;;;12.43;10.23;;;16.30;1.00;;;;;;5079799;28;20476;-89
2023/07/07 00:24:47;;;;;;;15.50;9.30;;;16.30;1.00;;;;;;5079678;28;20829;-89
2023/07/07 00:27:15;;;;;;;14.63;8.87;;;14.40;1.00;;;;;;5078769;28;20451;-88
2023/07/07 00:29:44;;;;;;;13.30;8.63;;;16.00;1.00;;;;;;5079874;28;20550;-89
2023/07/07 00:32:11;;;;;;;11.73;8.80;;;16.00;1.00;;;;;;5088271;28;20440;-88
2023/07/07 00:34:38;;;;;;;12.50;8.40;;;16.00;1.00;;;;;;5100780;28;20406;-87
2023/07/07 00:37:06;;;;;;;10.60;8.73;;;16.00;1.00;;;;;;5100964;28;20521;-86
2023/07/07 00:39:33;;;;;;;12.23;9.00;;;15.70;99.90;;;;;;5100787;28;20529;-88
2023/07/07 00:42:00;;;;;;;11.10;8.23;;;15.80;1.00;;;;;;5100975;28;20434;-87
2023/07/07 00:44:31;;;;;;;11.50;7.67;;;15.90;99.90;;;;;;5100852;28;20447;-87
2023/07/07 00:46:58;;;;;;;12.83;8.93;;;15.90;99.90;;;;;;5100891;28;20477;-88
2023/07/07 00:49:26;;;;;;;9.20;7.90;;;15.80;1.00;;;;;;5100586;28;20447;-88
2023/07/07 00:51:59;;;;;;;8.33;7.47;;;15.80;1.00;;;;;;5100772;28;20464;-87
2023/07/07 00:54:34;;;;;;;10.87;7.70;;;15.80;1.00;;;;;;5084221;28;20430;-89
2023/07/07 00:57:03;;;;;;;9.73;8.70;;;15.90;1.00;;;;;;5082608;28;20898;-88
2023/07/07 00:59:34;;;;;;;8.97;8.07;;;16.00;1.00;;;;;;5079740;28;20474;-89
2023/07/07 01:02:06;;;;;;;9.13;8.17;;;15.90;1.00;;;;;;5080901;28;20794;-89
2023/07/07 01:04:34;;;;;;;12.27;8.43;;;15.90;1.00;;;;;;5100457;28;20425;-86
2023/07/07 01:07:06;;;;;;;10.13;6.70;;;15.90;1.00;;;;;;5099091;28;20421;-89
2023/07/07 01:09:34;;;;;;;7.23;6.53;;;16.00;1.00;;;;;;5084954;28;20519;-90
2023/07/07 01:12:01;;;;;;;10.60;7.73;;;15.80;1.00;;;;;;5080300;28;20537;-90
2023/07/07 01:14:31;;;;;;;10.67;8.43;;;15.90;1.00;;;;;;5078778;28;20446;-90
2023/07/07 01:17:12;;;;;;;11.10;7.20;;;15.90;1.00;;;;;;5078696;28;20450;-89
2023/07/07 01:20:23;;;;;;;8.97;8.00;;;15.80;1.00;;;;;;5085340;28;20548;-89
2023/07/07 01:23:21;;;;;;;9.77;7.40;;;15.80;1.00;;;;;;5063103;28;20891;-89
2023/07/07 01:26:14;;;;;;;8.67;6.27;;;15.60;1.00;;;;;;5080674;28;20466;-89
2023/07/07 01:29:20;;;;;;;11.60;7.57;;;15.50;1.00;;;;;;5081371;28;20431;-88
2023/07/07 01:31:54;;;;;;;11.47;8.17;;;15.40;1.00;;;;;;5090775;28;20445;-89
2023/07/07 01:34:22;;;;;;;12.63;8.17;;;15.40;1.00;;;;;;5078462;28;20434;-89
2023/07/07 01:36:49;;;;;;;10.17;8.03;;;15.50;1.00;;;;;;5078135;28;20450;-90
2023/07/07 01:39:15;;;;;;;10.07;8.00;;;15.30;1.00;;;;;;5077193;28;20485;-90
2023/07/07 01:41:50;;;;;;;11.50;8.17;;;15.30;1.00;;;;;;5094775;28;20510;-88
2023/07/07 01:44:30;;;;;;;9.23;6.93;;;15.20;1.00;;;;;;5099275;28;20477;-89
2023/07/07 01:47:05;;;;;;;9.93;8.63;;;15.60;1.00;;;;;;5077486;28;20433;-90
2023/07/07 01:49:38;;;;;;;8.03;7.20;;;15.50;99.90;;;;;;5076635;28;20976;-90
2023/07/07 01:52:10;;;;;;;10.33;8.30;;;15.30;1.00;;;;;;5076195;28;20442;-89
2023/07/07 01:54:40;;;;;;;8.87;7.80;;;15.30;1.00;;;;;;5077767;28;20433;-89
2023/07/07 01:57:08;;;;;;;10.53;7.80;;;15.30;1.00;;;;;;5077768;28;20414;-88
2023/07/07 01:59:36;;;;;;;8.33;7.50;;;15.40;1.00;;;;;;5078297;28;20484;-89
2023/07/07 02:02:05;;;;;;;12.67;8.37;;;15.40;1.00;;;;;;5091418;28;20454;-88
2023/07/07 02:04:32;;;;;;;10.57;9.20;;;15.40;1.00;;;;;;5082658;28;20445;-89
2023/07/07 02:06:59;;;;;;;8.90;7.97;;;15.40;1.00;;;;;;5077977;28;20508;-89
2023/07/07 02:09:27;;;;;;;8.07;7.27;;;15.30;1.00;;;;;;5077994;28;20493;-89
2023/07/07 02:11:53;;;;;;;12.77;8.93;;;15.30;1.00;;;;;;5077840;28;20519;-89
2023/07/07 02:14:20;;;;;;;8.73;7.83;;;15.40;1.00;;;;;;5079127;28;20482;-89
2023/07/07 02:16:49;;;;;;;10.57;7.60;;;15.40;1.00;;;;;;5082034;28;20478;-89
2023/07/07 02:19:18;;;;;;;9.87;7.73;;;15.40;1.00;;;;;;5077204;28;20484;-89
2023/07/07 02:21:45;;;;;;;9.40;8.40;;;15.40;1.00;;;;;;5076961;28;20443;-89
2023/07/07 02:24:12;;;;;;;10.00;8.50;;;15.30;1.00;;;;;;5076191;28;20452;-89
2023/07/07 02:26:38;;;;;;;9.67;7.50;;;15.20;1.00;;;;;;5076352;28;21044;-89
2023/07/07 02:29:05;;;;;;;9.37;8.03;;;15.50;1.00;;;;;;5076267;28;20465;-89
2023/07/07 02:31:32;;;;;;;10.73;8.77;;;15.20;47.20;;;;;;5076823;28;20452;-89
2023/07/07 02:33:59;;;;;;;9.90;8.57;;;15.30;45.20;;;;;;5077854;28;20820;-89
2023/07/07 02:36:27;;;;;;;9.30;7.50;;;15.40;99.90;;;;;;5076905;28;20450;-89
2023/07/07 02:38:54;;;;;;;10.77;8.13;;;15.10;99.90;;;;;;5075764;28;20853;-89
2023/07/07 02:41:21;;;;;;;12.17;8.90;;;15.10;99.90;;;;;;5075334;28;20445;-89
2023/07/07 02:43:48;;;;;;;11.47;9.10;;;15.10;99.90;;;;;;5088869;28;20469;-89
2023/07/07 02:46:15;;;;;;;10.40;8.67;;;15.10;99.90;;;;;;5089349;28;20470;-89
2023/07/07 02:48:42;;;;;;;9.30;8.30;;;15.10;99.90;;;;;;5093069;28;20489;-88
2023/07/07 02:51:09;;;;;;;10.60;7.90;;;15.10;99.90;;;;;;5098677;28;20429;-88
2023/07/07 02:53:38;;;;;;;10.80;7.90;;;15.10;99.90;;;;;;5098449;28;20433;-88
2023/07/07 02:56:06;;;;;;;10.10;7.70;;;15.10;99.90;;;;;;5097778;28;20433;-88
2023/07/07 02:58:33;;;;;;;15.00;6.80;;;14.80;1.00;;;;;;5101298;28;20493;-89
2023/07/07 03:01:10;;;;;;;11.90;8.00;;;14.90;99.90;;;;;;5099623;28;20436;-89
2023/07/07 03:03:38;;;;;;;12.93;7.97;;;14.80;99.90;;;;;;5085302;28;20436;-89
2023/07/07 03:06:07;;;;;;;8.53;7.73;;;14.70;99.90;;;;;;5083350;28;20447;-89
2023/07/07 03:08:34;;;;;;;8.70;7.47;;;14.60;99.90;;;;;;5084018;28;20461;-89
2023/07/07 03:11:06;;;;;;;12.60;8.87;;;14.90;1.00;;;;;;5083899;28;20528;-89
2023/07/07 03:13:33;;;;;;;8.50;7.40;;;14.70;99.90;;;;;;5084347;28;20877;-89
2023/07/07 03:16:07;;;;;;;10.10;7.03;;;14.70;99.90;;;;;;5086082;28;20468;-88
2023/07/07 03:18:34;;;;;;;8.57;7.70;;;14.70;1.00;;;;;;5084952;28;20484;-89
2023/07/07 03:21:01;;;;;;;8.63;7.83;;;14.60;99.90;;;;;;5086574;28;20800;-90
2023/07/07 03:23:28;;;;;;;8.50;7.60;;;14.50;99.90;;;;;;5082570;28;20544;-90
2023/07/07 03:25:54;;;;;;;11.70;8.37;;;14.50;99.90;;;;;;5080541;28;20459;-90
2023/07/07 03:28:23;;;;;;;10.30;9.23;;;14.60;99.90;;;;;;5081146;28;20480;-89
2023/07/07 03:30:50;;;;;;;8.13;7.20;;;14.60;99.90;;;;;;5101974;28;20441;-89
2023/07/07 03:33:17;;;;;;;14.03;12.33;;;15.00;1.00;;;;;;5081906;28;21036;-90
2023/07/07 03:35:44;;;;;;;10.33;8.10;;;14.80;99.90;;;;;;5083254;28;20545;-90
2023/07/07 03:38:12;;;;;;;9.20;7.20;;;14.90;99.90;;;;;;5081251;28;20476;-90
2023/07/07 03:40:47;;;;;;;8.53;7.70;;;14.90;99.90;;;;;;5080605;28;20464;-90
2023/07/07 03:43:14;;;;;;;9.77;8.70;;;14.90;99.90;;;;;;5080141;28;20531;-90
2023/07/07 03:45:42;;;;;;;9.23;8.07;;;15.00;99.90;;;;;;5080195;28;20448;-90
2023/07/07 03:48:09;;;;;;;10.93;8.30;;;15.00;99.90;;;;;;5080873;28;20895;-90
2023/07/07 03:50:35;;;;;;;8.37;7.67;;;15.10;99.90;;;;;;5079643;28;20535;-90
2023/07/07 03:53:02;;;;;;;11.00;8.93;;;15.20;99.90;;;;;;5089575;28;20432;-87
2023/07/07 03:58:13;;;;;;;8.93;7.93;;;15.20;94.80;;;;;;5098956;28;20476;-87
2023/07/07 04:00:41;;;;;;;14.53;10.63;;;15.30;94.20;;;;;;5098897;28;20483;-89
2023/07/07 04:03:08;;;;;;;9.57;8.23;;;15.30;54.70;;;;;;5081526;28;20818;-89
2023/07/07 04:05:41;;;;;;;9.53;8.63;;;15.30;81.20;;;;;;5081338;28;20480;-89
2023/07/07 04:08:07;;;;;;;8.40;7.60;;;15.50;57.20;;;;;;5085918;28;20486;-89
2023/07/07 04:10:34;;;;;;;8.07;7.30;;;15.40;34.90;;;;;;5099393;28;20448;-90
2023/07/07 04:13:01;;;;;;;9.40;6.70;;;15.40;11.60;;;;;;5100189;28;20509;-89
2023/07/07 04:15:28;;;;;;;7.40;6.63;;;15.40;1.00;;;;;;5094176;28;20903;-89
2023/07/07 04:17:56;;;;;;;8.17;7.40;;;15.40;99.90;;;;;;5084646;28;20436;-89
2023/07/07 04:20:24;;;;;;;8.60;7.77;;;15.50;1.00;;;;;;5082476;28;20482;-90
2023/07/07 04:22:50;;;;;;;9.67;7.70;;;15.40;99.90;;;;;;5090326;28;20446;-87
2023/07/07 04:25:18;;;;;;;9.00;8.10;;;15.60;1.00;;;;;;5101257;28;20426;-89
2023/07/07 04:27:46;;;;;;;7.17;6.57;;;15.80;99.90;;;;;;5100869;28;20430;-86
2023/07/07 04:30:13;;;;;;;14.00;7.87;;;15.80;1.00;;;;;;5101221;28;20429;-88
2023/07/07 04:32:41;;;;;;;14.13;9.80;;;15.90;99.90;;;;;;5101010;28;20433;-89
2023/07/07 04:35:09;;;;;;;12.77;9.13;;;16.00;1.00;;;;;;5101133;28;20458;-88
2023/07/07 04:37:36;;;;;;;18.80;11.90;;;16.00;1.00;;;;;;5101042;28;20449;-87
2023/07/07 04:40:04;;;;;;;20.30;11.33;;;16.10;1.00;;;;;;5095760;28;20599;-89
2023/07/07 04:42:31;;;;;;;24.37;15.20;;;;;;;;;;5100651;28;20489;-89
2023/07/07 04:44:58;;;;;;;40.13;22.40;;;16.30;99.90;;;;;;5100809;28;20469;-88
2023/07/07 04:47:25;;;;;;;43.47;22.97;;;16.30;1.00;;;;;;5100543;28;20435;-88
2023/07/07 04:49:52;;;;;;;72.13;32.87;;;16.30;1.00;;;;;;5100594;28;20522;-87
2023/07/07 04:52:20;;;;;;;76.13;37.07;;;16.40;1.00;;;;;;5087882;28;20541;-89
2023/07/07 04:54:47;;;;;;;90.20;43.93;;;16.50;1.00;;;;;;5079737;28;20449;-90
2023/07/07 04:57:17;;;;;;;92.07;40.03;;;16.50;1.00;;;;;;5086980;28;20455;-89
2023/07/07 04:59:46;;;;;;;66.30;35.80;;;16.30;99.90;;;;;;5131183;22;20526;-90
2023/07/07 05:02:16;;;;;;;85.23;39.23;;;;;;;;;;5056859;28;20442;-92
2023/07/07 05:04:55;;;;;;;40.00;22.87;;;16.70;1.00;;;;;;5057238;28;20436;-91
2023/07/07 05:07:35;;;;;;;30.37;17.53;;;16.80;1.00;;;;;;5053173;28;20452;-92
2023/07/07 05:10:11;;;;;;;28.83;14.43;;;16.90;1.00;;;;;;5059326;28;20483;-92
2023/07/07 05:12:52;;;;;;;19.23;12.70;;;17.00;43.50;;;;;;5057196;28;20451;-92
2023/07/07 05:15:44;;;;;;;19.90;11.70;;;17.00;1.00;;;;;;5056219;28;20456;-92
2023/07/07 05:21:36;;;;;;;14.57;10.90;;;;;;;;;;5014684;28;20470;-92
2023/07/07 05:24:21;;;;;;;9.87;8.30;;;17.20;1.00;;;;;;5017199;28;20447;-91
2023/07/07 05:26:58;;;;;;;17.23;9.43;;;17.30;1.00;;;;;;5018262;28;20451;-91
2023/07/07 05:29:28;;;;;;;7.93;7.10;;;;;;;;;;5007084;28;20467;-92
2023/07/07 05:34:58;;;;;;;8.30;6.87;;;17.70;1.00;;;;;;5036127;28;20441;-92
2023/07/07 05:37:32;;;;;;;8.53;7.20;;;;;;;;;;5040785;28;20799;-92
2023/07/07 05:40:22;;;;;;;7.53;6.23;;;17.90;1.00;;;;;;5045380;28;20482;-92
2023/07/07 05:42:50;;;;;;;6.87;5.73;;;;;;;;;;5044238;28;20447;-91
2023/07/07 05:45:22;;;;;;;8.47;5.80;;;;;;;;;;5038579;28;20458;-92
2023/07/07 05:47:54;;;;;;;7.40;5.53;;;18.30;1.00;;;;;;5038179;28;20502;-92
2023/07/07 05:50:43;;;;;;;9.57;8.67;;;18.30;1.00;;;;;;5040879;28;20474;-92
2023/07/07 05:53:45;;;;;;;;;;;;;;;;;;;;;
2023/07/07 06:03:01;;;;;;;6.67;5.20;;;18.80;1.00;;;;;;4991492;28;20563;-92
2023/07/07 06:05:48;;;;;;;;;;;;;;;;;;;;;
2023/07/07 06:23:42;;;;;;;5.80;5.17;;;19.40;1.00;;;;;;5013963;28;20465;-93
2023/07/07 06:26:19;;;;;;;5.33;4.87;;;19.80;99.90;;;;;;5039243;28;20466;-92
2023/07/07 06:29:06;;;;;;;7.30;4.30;;;19.50;1.00;;;;;;5038300;28;20462;-93
2023/07/07 06:34:21;;;;;;;10.27;4.97;;;;;;;;;;5041197;28;20423;-92
2023/07/07 06:37:02;;;;;;;5.07;3.60;;;19.80;1.00;;;;;;5041026;28;20445;-92
2023/07/07 06:39:31;;;;;;;7.70;4.00;;;;;;;;;;5055033;28;21005;-92
2023/07/07 06:42:54;;;;;;;;;;;;;;;;;;;;;
2023/07/07 06:56:51;;;;;;;3.43;3.13;;;21.90;1.00;;;;;;4165208;26;20470;-93
2023/07/07 06:59:52;;;;;;;4.40;3.50;;;20.50;1.00;;;;;;5050279;28;20577;-93
2023/07/07 07:06:47;;;;;;;4.67;3.50;;;20.60;1.00;;;;;;4924076;28;20879;-93
2023/07/07 07:22:36;;;;;;;;;;;;;;;;;;;;;
2023/07/07 07:25:03;;;;;;;4.53;3.80;;;22.50;1.00;;;;;;5052865;22;20548;-89
2023/07/07 07:27:30;;;;;;;4.00;3.63;;;21.10;1.00;;;;;;5060108;28;20735;-89
2023/07/07 07:29:58;;;;;;;4.33;2.63;;;;;;;;;;5062242;28;20612;-90
2023/07/07 07:32:26;;;;;;;8.70;3.50;;;21.30;1.00;;;;;;5065086;28;20477;-90
2023/07/07 07:34:53;;;;;;;4.27;2.93;;;;;;;;;;5075630;28;20445;-91
2023/07/07 07:37:20;;;;;;;8.60;5.83;;;;;;;;;;5078082;28;20459;-90
2023/07/07 07:39:48;;;;;;;3.20;2.90;;;;;;;;;;5068172;28;20501;-90
2023/07/07 07:42:15;;;;;;;11.33;5.37;;;21.40;1.00;;;;;;5062362;28;20933;-88
2023/07/07 07:44:41;;;;;;;7.80;5.13;;;21.50;99.90;;;;;;5066268;28;20458;-89
2023/07/07 07:47:08;;;;;;;5.20;4.70;;;21.50;1.00;;;;;;5081334;28;20472;-90
2023/07/07 07:49:37;;;;;;;3.83;3.20;;;22.00;20.40;;;;;;5081100;28;20434;-90
2023/07/07 07:52:05;;;;;;;6.50;3.67;;;21.60;22.00;;;;;;5072917;28;20961;-90
2023/07/07 07:54:33;;;;;;;7.03;3.50;;;21.70;1.00;;;;;;5066701;28;20477;-90
2023/07/07 07:56:59;;;;;;;3.67;3.37;;;21.70;1.00;;;;;;5065654;28;20465;-89
2023/07/07 07:59:27;;;;;;;5.13;4.67;;;;;;;;;;5066763;28;20484;-90
2023/07/07 08:01:54;;;;;;;3.03;2.83;;;21.80;1.00;;;;;;5066776;28;20529;-90
2023/07/07 08:04:21;;;;;;;5.30;4.27;;;;;;;;;;5067928;28;20465;-90
2023/07/07 08:06:56;;;;;;;6.40;3.97;;;21.90;1.00;;;;;;5073615;28;20476;-91
2023/07/07 08:09:23;;;;;;;5.37;3.30;;;;;;;;;;5068796;28;20528;-90
2023/07/07 08:11:58;;;;;;;4.63;2.50;;;22.00;1.00;;;;;;5073392;28;20429;-90
2023/07/07 08:14:30;;;;;;;3.90;3.50;;;22.00;99.90;;;;;;5072813;28;20480;-91
2023/07/07 08:17:02;;;;;;;4.20;2.93;;;22.00;99.90;;;;;;5068270;28;20501;-91
2023/07/07 08:19:31;;;;;;;3.43;3.13;;;22.40;99.90;;;;;;5065759;28;20470;-90
2023/07/07 08:21:59;;;;;;;3.70;3.40;;;22.20;1.00;;;;;;5074834;28;20440;-91
2023/07/07 08:24:28;;;;;;;8.17;4.90;;;22.20;99.90;;;;;;5066311;28;20483;-91
2023/07/07 08:26:55;;;;;;;5.47;3.63;;;;;;;;;;5070568;28;20438;-91
2023/07/07 08:32:29;;;;;;;2.80;2.60;;;;;;;;;;5055906;28;20432;-91
2023/07/07 08:35:01;;;;;;;2.83;2.53;;;22.40;99.90;;;;;;5069354;28;20465;-93
2023/07/07 08:37:33;;;;;;;3.77;2.67;;;22.40;99.90;;;;;;5075979;28;20491;-92
2023/07/07 08:40:07;;;;;;;3.43;1.80;;;;;;;;;;5071375;28;20477;-91
2023/07/07 08:42:38;;;;;;;2.63;1.93;;;22.50;99.90;;;;;;5071268;28;20441;-92
2023/07/07 08:45:13;;;;;;;2.43;2.23;;;22.60;99.90;;;;;;5069093;28;20454;-92
2023/07/07 08:47:59;;;;;;;4.50;2.87;;;22.70;99.90;;;;;;5064696;28;20414;-91
2023/07/07 08:50:36;;;;;;;4.70;2.47;;;22.60;99.90;;;;;;5064966;28;20430;-89
2023/07/07 08:53:26;;;;;;;4.37;2.63;;;22.60;99.90;;;;;;5063915;28;20830;-90
2023/07/07 08:56:04;;;;;;;2.63;2.33;;;22.70;99.90;;;;;;5066611;28;20495;-89
2023/07/07 08:58:37;;;;;;;4.60;2.07;;;22.80;99.90;;;;;;5075133;28;20434;-89
2023/07/07 09:01:19;;;;;;;6.77;2.40;;;22.80;99.90;;;;;;5077727;28;20553;-87
2023/07/07 09:03:58;;;;;;;2.83;2.40;;;23.40;1.00;;;;;;5076541;28;20886;-90
2023/07/07 09:06:39;;;;;;;3.83;3.27;;;23.00;99.90;;;;;;5079378;28;20448;-89
2023/07/07 09:09:17;;;;;;;4.53;2.93;;;23.10;99.90;;;;;;5078978;28;20461;-89
2023/07/07 09:12:00;;;;;;;3.53;2.90;;;23.10;99.90;;;;;;5071786;28;20494;-88
2023/07/07 09:14:28;;;;;;;5.17;3.50;;;23.20;99.90;;;;;;5063453;28;20474;-88
2023/07/07 09:16:58;;;;;;;3.17;2.90;;;23.20;99.90;;;;;;5063639;28;20452;-88
2023/07/07 09:19:30;;;;;;;3.33;2.97;;;23.20;99.90;;;;;;5062437;28;20593;-88
2023/07/07 09:22:03;;;;;;;4.27;2.40;;;23.20;99.90;;;;;;5075776;28;20477;-87
2023/07/07 09:24:36;;;;;;;3.00;2.70;;;23.30;99.90;;;;;;5063683;28;20560;-88
2023/07/07 09:27:08;;;;;;;6.40;5.40;;;23.30;99.90;;;;;;5059856;28;20444;-88
2023/07/07 09:29:35;;;;;;;10.47;8.17;;;23.70;1.00;;;;;;5058927;28;20490;-88
2023/07/07 09:32:03;;;;;;;4.10;3.70;;;23.40;99.90;;;;;;5061229;28;20457;-87
2023/07/07 09:34:32;;;;;;;1.60;1.50;;;23.50;99.90;;;;;;5067748;28;20466;-91
2023/07/07 09:37:06;;;;;;;2.17;1.90;;;23.50;99.90;;;;;;5064243;28;20961;-91
2023/07/07 09:39:58;;;;;;;1.77;1.67;;;23.40;99.90;;;;;;5060193;28;20968;-90
2023/07/07 09:42:40;;;;;;;2.70;2.50;;;23.50;99.90;;;;;;5059048;28;20516;-89
2023/07/07 09:45:30;;;;;;;5.10;4.70;;;23.50;99.90;;;;;;5059189;28;20485;-89
2023/07/07 09:48:05;;;;;;;4.23;3.20;;;23.50;99.90;;;;;;5059044;28;20441;-89
2023/07/07 09:50:42;;;;;;;2.97;2.43;;;23.60;99.90;;;;;;5059358;28;20517;-89
2023/07/07 09:53:15;;;;;;;2.90;2.70;;;23.60;99.90;;;;;;5063513;28;21012;-88
2023/07/07 09:55:44;;;;;;;7.00;4.00;;;23.80;99.90;;;;;;5065018;28;20561;-88
2023/07/07 09:58:16;;;;;;;5.73;2.77;;;24.10;99.90;;;;;;5068202;28;20905;-88
2023/07/07 10:00:48;;;;;;;2.63;2.20;;;23.90;99.90;;;;;;5049142;28;20473;-88
2023/07/07 10:03:21;;;;;;;2.53;1.90;;;23.90;99.90;;;;;;5067032;28;20434;-89
2023/07/07 10:05:50;;;;;;;2.30;1.97;;;23.90;99.90;;;;;;5067558;28;20553;-89
2023/07/07 10:08:17;;;;;;;1.87;1.77;;;24.20;1.00;;;;;;5063613;28;20509;-89
2023/07/07 10:10:46;;;;;;;2.33;2.00;;;24.00;99.90;;;;;;5068308;28;20436;-89
2023/07/07 10:13:14;;;;;;;2.17;1.97;;;24.10;99.90;;;;;;5072874;28;20473;-88
2023/07/07 10:16:01;;;;;;;1.70;1.60;;;24.00;99.90;;;;;;5072524;28;20473;-89
2023/07/07 10:18:32;;;;;;;2.23;2.03;;;24.30;1.00;;;;;;5061947;28;20445;-88
2023/07/07 10:21:02;;;;;;;2.03;1.93;;;24.10;99.90;;;;;;5071485;28;20587;-89
2023/07/07 10:23:30;;;;;;;3.23;1.40;;;24.10;99.90;;;;;;5063346;28;20458;-89
2023/07/07 10:25:58;;;;;;;2.00;1.80;;;24.10;99.90;;;;;;5059502;28;20483;-89
2023/07/07 10:28:26;;;;;;;1.80;1.70;;;24.20;99.90;;;;;;5059076;28;20478;-89
2023/07/07 10:30:53;;;;;;;3.10;2.43;;;24.20;99.90;;;;;;5060052;28;20433;-89
2023/07/07 10:33:21;;;;;;;2.33;2.13;;;24.40;99.90;;;;;;5059296;28;20801;-89
2023/07/07 10:35:49;;;;;;;2.30;2.10;;;24.40;99.90;;;;;;5058391;28;20469;-88
2023/07/07 10:38:16;;;;;;;2.30;2.10;;;24.50;99.90;;;;;;5059144;28;20991;-89
2023/07/07 10:40:45;;;;;;;3.40;2.23;;;24.50;99.90;;;;;;5059705;28;20495;-88
2023/07/07 10:43:14;;;;;;;3.10;2.80;;;24.50;99.90;;;;;;5059727;28;20472;-89
2023/07/07 10:45:45;;;;;;;2.73;2.20;;;24.50;99.90;;;;;;5067835;28;20524;-89
2023/07/07 10:48:14;;;;;;;2.53;2.33;;;24.50;99.90;;;;;;5077816;28;20551;-89
2023/07/07 10:50:52;;;;;;;2.27;2.00;;;24.50;99.90;;;;;;5072375;28;20460;-88
2023/07/07 10:53:41;;;;;;;4.10;2.87;;;24.40;99.90;;;;;;5072373;28;20426;-87
2023/07/07 10:56:22;;;;;;;3.93;3.50;;;24.50;99.90;;;;;;5061166;28;20465;-89
2023/07/07 10:59:08;;;;;;;4.37;3.43;;;24.60;99.90;;;;;;5061298;28;20434;-89
2023/07/07 11:01:50;;;;;;;2.10;1.90;;;24.60;99.90;;;;;;5066981;28;20473;-88
2023/07/07 11:04:40;;;;;;;2.33;2.13;;;24.60;99.90;;;;;;5067894;28;20504;-89
2023/07/07 11:07:20;;;;;;;2.30;2.10;;;24.70;99.90;;;;;;5071534;28;20470;-90
2023/07/07 11:10:01;;;;;;;1.97;1.77;;;24.80;99.90;;;;;;5068515;28;20432;-89
2023/07/07 11:12:34;;;;;;;2.10;2.00;;;24.90;99.90;;;;;;5071736;28;20430;-88
2023/07/07 11:15:12;;;;;;;3.63;1.97;;;26.00;99.90;;;;;;5069166;28;20560;-89
2023/07/07 11:17:57;;;;;;;3.33;1.70;;;25.00;99.90;;;;;;5061444;28;20430;-88
2023/07/07 11:20:46;;;;;;;2.97;2.10;;;25.10;99.90;;;;;;5064109;28;20489;-88
2023/07/07 11:23:43;;;;;;;2.10;2.00;;;25.00;99.90;;;;;;5065269;28;20440;-87
2023/07/07 11:26:17;;;;;;;1.77;1.60;;;24.90;99.90;;;;;;5073165;28;20461;-87
2023/07/07 11:28:51;;;;;;;2.37;1.90;;;24.70;1.00;;;;;;5080453;28;20418;-91
2023/07/07 11:31:32;;;;;;;2.10;1.90;;;25.00;99.90;;;;;;5081142;28;20477;-88
2023/07/07 11:34:09;;;;;;;4.27;2.10;;;25.00;99.90;;;;;;5064033;28;20465;-86
2023/07/07 11:36:55;;;;;;;2.10;1.87;;;25.00;99.90;;;;;;5065264;28;20429;-87
2023/07/07 11:39:43;;;;;;;5.43;2.23;;;25.00;99.90;;;;;;5065605;28;20528;-85
2023/07/07 11:42:37;;;;;;;2.23;2.13;;;25.00;99.90;;;;;;5062999;28;20560;-86
2023/07/07 11:45:14;;;;;;;4.43;2.20;;;25.20;99.90;;;;;;5065884;28;20493;-87
2023/07/07 11:47:58;;;;;;;2.27;2.13;;;25.40;99.90;;;;;;5061894;28;20447;-86
2023/07/07 11:50:42;;;;;;;2.70;2.47;;;25.40;99.90;;;;;;5060545;28;20426;-86
2023/07/07 11:53:29;;;;;;;3.57;2.80;;;25.30;99.90;;;;;;5063707;28;20434;-86
2023/07/07 11:56:08;;;;;;;4.17;3.87;;;25.20;99.90;;;;;;5068443;28;20462;-86
2023/07/07 11:58:41;;;;;;;3.33;3.00;;;25.20;99.90;;;;;;5064459;28;20432;-86
2023/07/07 12:01:14;;;;;;;2.60;2.50;;;25.20;99.90;;;;;;5059178;28;20461;-86
2023/07/07 12:03:50;;;;;;;2.83;2.63;;;25.30;99.90;;;;;;5060433;28;20430;-86
2023/07/07 12:06:22;;;;;;;3.70;2.60;;;25.30;99.90;;;;;;5061216;28;20433;-86
2023/07/07 12:09:07;;;;;;;3.37;2.30;;;25.30;99.90;;;;;;5075547;28;20445;-87
2023/07/07 12:11:41;;;;;;;6.67;2.30;;;25.40;99.90;;;;;;5073430;28;20468;-85
2023/07/07 12:14:19;;;;;;;2.33;2.13;;;25.50;99.90;;;;;;5065837;28;20474;-86
2023/07/07 12:16:49;;;;;;;3.27;2.80;;;25.50;99.90;;;;;;5061072;28;20444;-87
2023/07/07 12:19:26;;;;;;;4.10;2.60;;;25.50;99.90;;;;;;5059462;28;20485;-88
2023/07/07 12:21:55;;;;;;;4.67;2.03;;;25.50;99.90;;;;;;5059297;28;20469;-87
2023/07/07 12:24:28;;;;;;;3.27;2.60;;;25.60;99.90;;;;;;5058382;28;20473;-87
2023/07/07 12:27:08;;;;;;;2.40;2.20;;;25.50;99.90;;;;;;5059975;28;20770;-87
2023/07/07 12:29:38;;;;;;;2.30;2.10;;;25.60;99.90;;;;;;5065073;28;20414;-86
2023/07/07 12:32:07;;;;;;;7.07;2.60;;;25.60;99.90;;;;;;5069306;28;20461;-87
2023/07/07 12:34:39;;;;;;;2.20;2.00;;;25.80;99.90;;;;;;5058535;28;20470;-86
2023/07/07 12:37:12;;;;;;;2.70;2.43;;;25.90;99.90;;;;;;5058447;28;20426;-86
2023/07/07 12:39:51;;;;;;;4.00;2.17;;;25.90;99.90;;;;;;5059819;28;20508;-86
2023/07/07 12:42:18;;;;;;;2.70;2.50;;;25.80;99.90;;;;;;5075401;28;20476;-86
2023/07/07 12:44:45;;;;;;;3.20;3.00;;;25.80;99.90;;;;;;5077078;28;20464;-86
2023/07/07 12:47:26;;;;;;;1.93;1.80;;;26.00;99.90;;;;;;5075327;28;20454;-86
2023/07/07 12:49:58;;;;;;;4.33;3.17;;;26.00;99.90;;;;;;5076818;28;20416;-86
2023/07/07 12:52:28;;;;;;;3.57;3.30;;;26.00;99.90;;;;;;5075341;28;20434;-86
2023/07/07 12:55:03;;;;;;;4.50;2.90;;;26.10;99.90;;;;;;5063671;28;20458;-86
2023/07/07 12:57:30;;;;;;;4.10;3.70;;;26.20;99.90;;;;;;5059837;28;20445;-86
2023/07/07 13:00:27;;;;;;;3.37;2.70;;;26.30;99.90;;;;;;5059104;28;20532;-86
2023/07/07 13:03:13;;;;;;;2.63;2.43;;;26.20;99.90;;;;;;5059587;28;20513;-86
2023/07/07 13:05:46;;;;;;;3.63;2.80;;;25.90;99.90;;;;;;5060748;28;20497;-87
2023/07/07 13:08:33;;;;;;;2.20;2.10;;;25.90;99.90;;;;;;5058884;28;20434;-87
2023/07/07 13:11:03;;;;;;;2.20;2.00;;;25.90;99.90;;;;;;5058698;28;20453;-87
2023/07/07 13:13:36;;;;;;;3.53;2.20;;;26.00;99.90;;;;;;5057955;28;20453;-87
2023/07/07 13:16:04;;;;;;;2.33;2.17;;;26.00;99.90;;;;;;5057843;28;20910;-87
2023/07/07 13:18:32;;;;;;;4.20;2.80;;;26.00;99.90;;;;;;5057520;28;20454;-87
2023/07/07 13:21:01;;;;;;;3.10;2.90;;;26.10;99.90;;;;;;5058379;28;20558;-86
2023/07/07 13:23:33;;;;;;;2.27;2.07;;;26.20;99.90;;;;;;5057710;28;20536;-87
2023/07/07 13:26:00;;;;;;;3.93;3.40;;;26.00;1.00;;;;;;5091308;22;20500;-86
2023/07/07 13:28:27;;;;;;;5.73;5.23;;;26.30;99.90;;;;;;5083179;28;20451;-86
2023/07/07 13:30:56;;;;;;;4.10;3.70;;;26.30;99.90;;;;;;5096129;28;20437;-85
2023/07/07 13:33:25;;;;;;;4.20;3.80;;;26.30;99.90;;;;;;5089052;28;20769;-86
2023/07/07 13:35:55;;;;;;;3.53;2.93;;;26.20;99.90;;;;;;5090818;28;20472;-86
2023/07/07 13:38:26;;;;;;;3.70;3.40;;;26.20;99.90;;;;;;5096990;28;20437;-87
2023/07/07 13:40:54;;;;;;;3.47;3.17;;;26.30;99.90;;;;;;5090073;28;20496;-86
2023/07/07 13:43:37;;;;;;;2.30;2.20;;;26.40;99.90;;;;;;5087512;28;20516;-87
2023/07/07 13:46:11;;;;;;;3.40;2.30;;;26.40;99.90;;;;;;5091962;28;20903;-86
2023/07/07 13:48:42;;;;;;;3.10;2.90;;;26.50;99.90;;;;;;5098487;28;20414;-86
2023/07/07 13:51:13;;;;;;;3.47;3.17;;;26.50;99.90;;;;;;5099374;28;20425;-86
2023/07/07 13:53:42;;;;;;;3.70;2.83;;;26.20;1.00;;;;;;5098304;28;20492;-86
2023/07/07 13:56:09;;;;;;;3.07;2.57;;;26.60;99.90;;;;;;5094075;28;20499;-86
2023/07/07 13:58:41;;;;;;;2.80;2.60;;;26.60;99.90;;;;;;5094111;28;20515;-86
2023/07/07 14:01:19;;;;;;;3.70;3.40;;;26.60;99.90;;;;;;5077265;28;20812;-87
2023/07/07 14:03:47;;;;;;;3.20;2.90;;;26.60;99.90;;;;;;5078118;28;20436;-87
2023/07/07 14:06:15;;;;;;;2.80;2.60;;;26.60;99.90;;;;;;5080084;28;20472;-86
2023/07/07 14:08:44;;;;;;;3.40;2.60;;;26.50;99.90;;;;;;5078621;28;20457;-86
2023/07/07 14:11:18;;;;;;;3.37;3.10;;;26.50;99.90;;;;;;5077662;28;20483;-87
2023/07/07 14:13:51;;;;;;;4.27;3.20;;;26.60;99.90;;;;;;5079788;28;20857;-86
2023/07/07 14:16:25;;;;;;;3.10;2.73;;;26.60;99.90;;;;;;5077794;28;20833;-87
2023/07/07 14:19:00;;;;;;;4.70;3.00;;;26.50;99.90;;;;;;5079669;28;20493;-86
2023/07/07 14:21:28;;;;;;;2.27;2.13;;;26.50;99.90;;;;;;5085060;28;20499;-86
2023/07/07 14:23:58;;;;;;;2.90;2.70;;;26.60;99.90;;;;;;5078953;28;20453;-86
2023/07/07 14:26:28;;;;;;;2.97;2.77;;;26.70;99.90;;;;;;5077836;28;20898;-87
2023/07/07 14:28:56;;;;;;;3.50;3.30;;;26.70;99.90;;;;;;5094647;28;20467;-86
2023/07/07 14:31:24;;;;;;;5.17;2.70;;;26.70;99.90;;;;;;5098112;28;20479;-86